Main page
METAR-TAF:

METAR-TAF

Airports :

Porto Airport

Porto, Portugal

latitude: 41-14N, longitude: 008-41W, elevation: 69 m

Current weather observation

The report was made 18 minutes ago, at 04:30 UTC
Wind 7 kt from the East
Temperature 11°C
Humidity 71%
Pressure 1026 hPa
Visibility 10 km or more
no clouds below 1500 m and no cumulonimbus

METAR: LPPR 210430Z 10007KT CAVOK 11/06 Q1026

Time: 04:48 (04:48 UTC)

Forecast

The report was made 5 hours and 48 minutes ago, at 23:00 UTC
Forecast valid from 21 at 00 UTC to 21 at 24 UTC
Wind 8 kt from the East
Visibility 10 km or more
no clouds below 1500 m and no cumulonimbus
Becoming
from 21 at 15 UTC to 21 at 18 UTC
Wind 7 kt from the North/Northwest
Becoming
from 21 at 22 UTC to 21 at 24 UTC
Wind 7 kt from the East

TAF: LPPR 202300Z 2100/2124 08008KT CAVOK BECMG 2115/2118 34007KT BECMG 2122/2124 08007KT

Weather observations and forecasts of more than 4000 airports (METAR and TAF reports).

The available stations are represented by yellow and red dots on the map.

Hover mouse over dot to see the name of the station.

Then click to see weather observations and forecasts.

To change the map : click on the green buttons with a black cross to zoom in, on the green button with a dash to zoom out, or on the green arrows for adjacent maps.


METAR-TAF: